createdAt,value
2022-12-25T00:00:30.722Z,1008.04
2022-12-25T00:01:30.672Z,1008.09
2022-12-25T00:02:31.790Z,1008.05
2022-12-25T00:03:30.749Z,1008.05
2022-12-25T00:04:30.648Z,1008.02
2022-12-25T00:05:31.752Z,1008.02
2022-12-25T00:06:30.633Z,1008.06
2022-12-25T00:07:30.645Z,1008.06
2022-12-25T00:08:30.616Z,1008.05
2022-12-25T00:09:30.623Z,1007.98
2022-12-25T00:10:51.637Z,1007.99
2022-12-25T00:11:30.597Z,1007.96
2022-12-25T00:12:30.596Z,1007.99
2022-12-25T00:13:30.588Z,1007.94
2022-12-25T00:14:30.592Z,1007.91
2022-12-25T00:15:30.568Z,1007.95
2022-12-25T00:16:30.666Z,1007.98
2022-12-25T00:17:30.575Z,1007.99
2022-12-25T00:18:30.553Z,1008.07
2022-12-25T00:19:30.536Z,1008.07
2022-12-25T00:20:30.551Z,1008.06
2022-12-25T00:21:30.549Z,1008.03
2022-12-25T00:22:30.538Z,1008.03
2022-12-25T00:23:30.520Z,1007.97
2022-12-25T00:24:30.513Z,1008.04
2022-12-25T00:25:30.507Z,1008.03
2022-12-25T00:26:30.495Z,1008.05
2022-12-25T00:27:30.483Z,1008.06
2022-12-25T00:28:30.491Z,1008.05
2022-12-25T00:29:30.474Z,1008.03
2022-12-25T00:30:30.493Z,1008.05
2022-12-25T00:31:30.564Z,1008.08
2022-12-25T00:32:30.450Z,1008.04
2022-12-25T00:33:51.451Z,1008.01
2022-12-25T00:34:30.438Z,1008.04
2022-12-25T00:35:30.451Z,1008.02
2022-12-25T00:36:51.437Z,1008.02
2022-12-25T00:37:30.423Z,1008.02
2022-12-25T00:38:30.422Z,1008.06
2022-12-25T00:39:30.405Z,1008.02
2022-12-25T00:40:30.391Z,1008.05
2022-12-25T00:41:30.397Z,1008.07
2022-12-25T00:42:30.396Z,1008.05
2022-12-25T00:43:31.429Z,1008.08
2022-12-25T00:44:30.372Z,1008.04
2022-12-25T00:47:03.913Z,1008.05
2022-12-25T00:48:03.856Z,1008.04
2022-12-25T00:49:58.035Z,1008.11
2022-12-25T00:50:58.009Z,1008.07
2022-12-25T00:52:52.190Z,1008.09
2022-12-25T00:53:52.175Z,1008.12
2022-12-25T00:55:46.284Z,1008.10
2022-12-25T00:56:46.313Z,1008.07
2022-12-25T00:58:40.441Z,1008.04
2022-12-25T00:59:40.383Z,1008.04
2022-12-25T01:01:34.271Z,1008.09
2022-12-25T01:02:34.239Z,1008.08
2022-12-25T01:04:28.364Z,1008.11
2022-12-25T01:05:28.342Z,1008.05
2022-12-25T01:07:22.341Z,1008.04
2022-12-25T01:08:22.459Z,1008.06
2022-12-25T01:10:16.446Z,1008.06
2022-12-25T01:11:16.426Z,1008.04
2022-12-25T01:13:10.507Z,1008.01
2022-12-25T01:14:10.495Z,1007.90
2022-12-25T01:16:04.643Z,1007.93
2022-12-25T01:17:04.573Z,1007.96
2022-12-25T01:18:59.877Z,1008.03
2022-12-25T01:19:59.852Z,1008.04
2022-12-25T01:21:53.985Z,1008.06
2022-12-25T01:22:53.970Z,1008.11
2022-12-25T01:24:48.166Z,1008.09
2022-12-25T01:25:48.147Z,1008.06
2022-12-25T01:27:42.306Z,1007.96
2022-12-25T01:28:42.289Z,1007.93
2022-12-25T01:30:36.386Z,1007.95
2022-12-25T01:31:36.436Z,1007.97
2022-12-25T01:33:30.640Z,1007.88
2022-12-25T01:34:30.637Z,1007.89
2022-12-25T01:36:24.771Z,1007.83
2022-12-25T01:37:24.818Z,1007.86
2022-12-25T01:39:18.946Z,1007.87
2022-12-25T01:40:18.922Z,1007.90
2022-12-25T01:42:13.002Z,1007.98
2022-12-25T01:43:18.539Z,1007.97
2022-12-25T01:45:07.107Z,1007.97
2022-12-25T01:46:07.345Z,1007.97
2022-12-25T01:48:01.176Z,1007.96
2022-12-25T01:49:01.167Z,1007.97
2022-12-25T01:50:55.299Z,1008.02
2022-12-25T01:51:55.281Z,1008.04
2022-12-25T01:53:49.391Z,1008.03
2022-12-25T01:54:49.392Z,1008.02
2022-12-25T01:56:43.586Z,1008.06
2022-12-25T01:57:43.569Z,1008.04
2022-12-25T01:59:37.919Z,1008.00
2022-12-25T02:00:37.913Z,1008.04
2022-12-25T02:02:32.279Z,1008.05
2022-12-25T02:03:32.271Z,1008.04
2022-12-25T02:05:26.712Z,1008.03
2022-12-25T02:06:26.683Z,1008.03
2022-12-25T02:08:20.885Z,1008.01
2022-12-25T02:09:20.874Z,1008.03
2022-12-25T02:11:15.002Z,1008.05
2022-12-25T02:12:14.993Z,1008.03
2022-12-25T02:14:09.158Z,1008.04
2022-12-25T02:15:09.142Z,1008.04
2022-12-25T02:17:03.303Z,1008.02
2022-12-25T02:18:03.251Z,1008.10
2022-12-25T02:19:57.326Z,1008.11
2022-12-25T02:20:57.306Z,1008.17
2022-12-25T02:22:51.069Z,1008.15
2022-12-25T02:23:51.066Z,1008.21
2022-12-25T02:25:44.848Z,1008.17
2022-12-25T02:26:44.830Z,1008.21
2022-12-25T02:28:42.078Z,1008.18
2022-12-25T02:29:39.088Z,1008.22
2022-12-25T02:31:33.279Z,1008.24
2022-12-25T02:32:33.190Z,1008.29
2022-12-25T02:34:27.351Z,1008.29
2022-12-25T02:35:27.341Z,1008.35
2022-12-25T02:37:21.463Z,1008.28
2022-12-25T02:38:21.445Z,1008.28
2022-12-25T02:40:15.573Z,1008.26
2022-12-25T02:41:15.555Z,1008.26
2022-12-25T02:43:09.688Z,1008.25
2022-12-25T02:44:09.666Z,1008.22
2022-12-25T02:46:03.912Z,1008.25
2022-12-25T02:47:03.849Z,1008.17
2022-12-25T02:48:58.183Z,1008.24
2022-12-25T02:49:58.181Z,1008.27
2022-12-25T02:51:52.374Z,1008.26
2022-12-25T02:52:52.359Z,1008.22
2022-12-25T02:54:46.546Z,1008.21
2022-12-25T02:55:46.532Z,1008.18
2022-12-25T02:57:40.572Z,1008.10
2022-12-25T02:58:40.575Z,1008.07
2022-12-25T03:00:34.337Z,1008.04
2022-12-25T03:01:34.344Z,1008.08
2022-12-25T03:03:28.530Z,1008.05
2022-12-25T03:04:28.446Z,1008.12
2022-12-25T03:06:22.662Z,1008.08
2022-12-25T03:07:22.646Z,1008.12
2022-12-25T03:09:16.888Z,1008.15
2022-12-25T03:10:16.876Z,1008.18
2022-12-25T03:12:10.955Z,1008.26
2022-12-25T03:13:10.939Z,1008.25
2022-12-25T03:15:05.038Z,1008.23
2022-12-25T03:16:05.029Z,1008.20
2022-12-25T03:17:59.897Z,1008.14
2022-12-25T03:18:59.876Z,1008.18
2022-12-25T03:20:53.980Z,1008.14
2022-12-25T03:21:53.962Z,1008.15
2022-12-25T03:23:48.278Z,1008.11
2022-12-25T03:24:48.248Z,1008.06
2022-12-25T03:26:42.438Z,1008.07
2022-12-25T03:27:42.413Z,1007.99
2022-12-25T03:29:37.549Z,1007.93
2022-12-25T03:30:37.562Z,1007.94
2022-12-25T03:32:31.407Z,1008.00
2022-12-25T03:33:45.978Z,1008.02
2022-12-25T03:35:26.589Z,1007.99
2022-12-25T03:36:26.566Z,1007.94
2022-12-25T03:38:20.733Z,1007.86
2022-12-25T03:39:20.724Z,1007.87
2022-12-25T03:41:14.793Z,1007.81
2022-12-25T03:42:14.779Z,1007.76
2022-12-25T03:44:08.851Z,1007.80
2022-12-25T03:45:08.835Z,1007.82
2022-12-25T03:47:02.935Z,1007.88
2022-12-25T03:48:02.908Z,1007.84
2022-12-25T03:49:57.024Z,1007.73
2022-12-25T03:50:57.036Z,1007.69
2022-12-25T03:52:51.162Z,1007.65
2022-12-25T03:53:51.147Z,1007.60
2022-12-25T03:55:45.289Z,1007.58
2022-12-25T03:56:45.264Z,1007.57
2022-12-25T03:58:39.359Z,1007.49
2022-12-25T03:59:39.356Z,1007.53
2022-12-25T04:01:33.478Z,1007.62
2022-12-25T04:02:33.530Z,1007.64
2022-12-25T04:04:27.551Z,1007.62
2022-12-25T04:05:27.529Z,1007.63
2022-12-25T04:07:21.838Z,1007.59
2022-12-25T04:08:21.836Z,1007.56
2022-12-25T04:10:15.950Z,1007.52
2022-12-25T04:11:15.927Z,1007.51
2022-12-25T04:13:10.069Z,1007.61
2022-12-25T04:14:10.053Z,1007.60
2022-12-25T04:16:04.217Z,1007.62
2022-12-25T04:17:04.137Z,1007.56
2022-12-25T04:18:58.622Z,1007.49
2022-12-25T04:19:58.618Z,1007.50
2022-12-25T04:21:53.714Z,1007.49
2022-12-25T04:22:53.695Z,1007.50
2022-12-25T04:24:47.867Z,1007.54
2022-12-25T04:25:47.851Z,1007.57
2022-12-25T04:27:41.967Z,1007.60
2022-12-25T04:28:41.944Z,1007.55
2022-12-25T04:30:35.737Z,1007.60
2022-12-25T04:31:35.814Z,1007.54
2022-12-25T04:33:29.580Z,1007.58
2022-12-25T04:34:29.563Z,1007.66
2022-12-25T04:36:23.710Z,1007.70
2022-12-25T04:37:23.683Z,1007.66
2022-12-25T04:39:17.749Z,1007.66
2022-12-25T04:40:17.740Z,1007.67
2022-12-25T04:42:11.886Z,1007.72
2022-12-25T04:43:11.862Z,1007.74
2022-12-25T04:45:06.124Z,1007.79
2022-12-25T04:46:06.199Z,1007.80
2022-12-25T04:48:00.198Z,1007.76
2022-12-25T04:49:00.181Z,1007.78
2022-12-25T04:50:54.336Z,1007.77
2022-12-25T04:51:54.329Z,1007.79
2022-12-25T04:53:48.478Z,1007.74
2022-12-25T04:54:48.457Z,1007.75
2022-12-25T04:56:45.840Z,1007.75
2022-12-25T04:57:42.592Z,1007.73
2022-12-25T04:59:36.363Z,1007.69
2022-12-25T05:00:36.371Z,1007.64
2022-12-25T05:02:30.784Z,1007.65
2022-12-25T05:03:30.690Z,1007.65
2022-12-25T05:05:25.734Z,1007.62
2022-12-25T05:06:25.721Z,1007.65
2022-12-25T05:08:19.883Z,1007.63
2022-12-25T05:09:19.861Z,1007.62
2022-12-25T05:11:14.431Z,1007.61
2022-12-25T05:12:14.405Z,1007.57
2022-12-25T05:14:08.695Z,1007.51
2022-12-25T05:15:08.689Z,1007.47
2022-12-25T05:17:02.832Z,1007.42
2022-12-25T05:18:02.812Z,1007.43
2022-12-25T05:19:56.935Z,1007.38
2022-12-25T05:20:56.926Z,1007.39
2022-12-25T05:22:51.012Z,1007.39
2022-12-25T05:23:50.991Z,1007.41
2022-12-25T05:25:45.136Z,1007.38
2022-12-25T05:26:45.120Z,1007.41
2022-12-25T05:28:39.246Z,1007.45
2022-12-25T05:29:39.222Z,1007.45
2022-12-25T05:31:33.579Z,1007.45
2022-12-25T05:32:33.493Z,1007.46
2022-12-25T05:34:27.555Z,1007.45
2022-12-25T05:35:27.537Z,1007.39
2022-12-25T05:37:21.666Z,1007.37
2022-12-25T05:38:21.650Z,1007.38
2022-12-25T05:40:15.852Z,1007.34
2022-12-25T05:41:15.834Z,1007.24
2022-12-25T05:43:10.069Z,1007.26
2022-12-25T05:44:10.056Z,1007.24
2022-12-25T05:46:03.803Z,1007.18
2022-12-25T05:47:03.874Z,1007.17
2022-12-25T05:48:57.955Z,1007.11
2022-12-25T05:49:57.936Z,1007.04
2022-12-25T05:51:52.081Z,1006.90
2022-12-25T05:52:52.066Z,1006.88
2022-12-25T05:54:46.161Z,1006.88
2022-12-25T05:55:46.148Z,1006.93
2022-12-25T05:57:40.261Z,1006.94
2022-12-25T05:58:40.247Z,1006.97
2022-12-25T06:00:33.970Z,1007.06
2022-12-25T06:01:34.017Z,1007.09
2022-12-25T06:03:28.327Z,1007.09
2022-12-25T06:04:28.140Z,1007.15
2022-12-25T06:06:23.873Z,1007.14
2022-12-25T06:07:23.863Z,1007.06
2022-12-25T06:09:18.017Z,1006.99
2022-12-25T06:10:18.007Z,1006.96
2022-12-25T06:12:11.766Z,1006.91
2022-12-25T06:13:11.753Z,1006.92
2022-12-25T06:15:05.892Z,1006.91
2022-12-25T06:16:05.932Z,1006.90
2022-12-25T06:17:59.985Z,1006.91
2022-12-25T06:18:59.966Z,1006.96
2022-12-25T06:20:54.107Z,1006.92
2022-12-25T06:21:54.094Z,1007.02
2022-12-25T06:23:48.305Z,1006.97
2022-12-25T06:24:48.232Z,1006.97
2022-12-25T06:26:42.347Z,1006.98
2022-12-25T06:27:42.327Z,1006.91
2022-12-25T06:29:36.451Z,1006.86
2022-12-25T06:30:36.419Z,1006.83
2022-12-25T06:32:30.193Z,1006.80
2022-12-25T06:33:30.181Z,1006.77
2022-12-25T06:35:24.386Z,1006.69
2022-12-25T06:36:24.366Z,1006.69
2022-12-25T06:38:19.511Z,1006.70
2022-12-25T06:39:19.492Z,1006.66
2022-12-25T06:41:13.660Z,1006.61
2022-12-25T06:42:13.645Z,1006.62
2022-12-25T06:44:07.719Z,1006.56
2022-12-25T06:45:07.700Z,1006.54
2022-12-25T06:47:01.809Z,1006.49
2022-12-25T06:48:01.780Z,1006.40
2022-12-25T06:49:55.994Z,1006.35
2022-12-25T06:50:55.992Z,1006.34
2022-12-25T06:52:50.157Z,1006.37
2022-12-25T06:53:50.140Z,1006.35
2022-12-25T06:55:45.811Z,1006.41
2022-12-25T06:56:45.800Z,1006.40
2022-12-25T06:58:39.891Z,1006.46
2022-12-25T06:59:39.877Z,1006.53
2022-12-25T07:01:33.674Z,1006.44
2022-12-25T07:02:33.731Z,1006.43
2022-12-25T07:04:27.879Z,1006.32
2022-12-25T07:05:27.868Z,1006.28
2022-12-25T07:07:21.976Z,1006.24
2022-12-25T07:08:21.977Z,1006.22
2022-12-25T07:10:16.064Z,1006.16
2022-12-25T07:11:16.052Z,1006.14
2022-12-25T07:13:10.152Z,1006.07
2022-12-25T07:14:10.131Z,1006.07
2022-12-25T07:16:04.263Z,1006.11
2022-12-25T07:17:04.217Z,1006.10
2022-12-25T07:18:58.423Z,1006.05
2022-12-25T07:19:58.408Z,1006.00
2022-12-25T07:21:52.511Z,1005.93
2022-12-25T07:22:52.501Z,1005.89
2022-12-25T07:24:46.700Z,1005.87
2022-12-25T07:25:46.680Z,1005.79
2022-12-25T07:27:40.791Z,1005.86
2022-12-25T07:28:40.762Z,1005.84
2022-12-25T07:30:35.068Z,1005.92
2022-12-25T07:31:35.071Z,1005.91
2022-12-25T07:33:29.201Z,1005.95
2022-12-25T07:34:29.181Z,1005.91
2022-12-25T07:36:23.233Z,1005.89
2022-12-25T07:37:23.211Z,1005.83
2022-12-25T07:39:16.977Z,1005.82
2022-12-25T07:40:17.018Z,1005.78
2022-12-25T07:42:11.749Z,1005.74
2022-12-25T07:43:11.700Z,1005.75
2022-12-25T07:45:05.912Z,1005.85
2022-12-25T07:46:05.998Z,1005.89
2022-12-25T07:48:04.979Z,1005.95
2022-12-25T07:48:59.934Z,1005.98
2022-12-25T07:50:54.029Z,1005.99
2022-12-25T07:51:54.019Z,1006.08
2022-12-25T07:53:48.189Z,1006.16
2022-12-25T07:54:48.226Z,1006.18
2022-12-25T07:56:42.314Z,1006.21
2022-12-25T07:57:42.290Z,1006.13
2022-12-25T07:59:37.462Z,1006.17
2022-12-25T08:00:37.518Z,1006.16
2022-12-25T08:02:31.808Z,1006.07
2022-12-25T08:03:31.719Z,1006.01
2022-12-25T08:05:25.688Z,1005.94
2022-12-25T08:06:25.666Z,1005.98
2022-12-25T08:08:19.769Z,1005.97
2022-12-25T08:09:19.757Z,1005.98
2022-12-25T08:11:13.600Z,1005.97
2022-12-25T08:12:13.562Z,1005.98
2022-12-25T08:14:07.747Z,1005.99
2022-12-25T08:15:07.733Z,1005.91
2022-12-25T08:17:01.934Z,1005.71
2022-12-25T08:18:01.826Z,1005.68
2022-12-25T08:19:57.762Z,1005.74
2022-12-25T08:20:57.102Z,1005.76
2022-12-25T08:22:18.568Z,1005.71
2022-12-25T08:22:57.100Z,1005.68
2022-12-25T08:23:57.088Z,1005.72
2022-12-25T08:24:57.095Z,1005.81
2022-12-25T08:26:02.433Z,1005.89
2022-12-25T08:26:57.019Z,1005.88
2022-12-25T08:27:57.061Z,1005.95
2022-12-25T08:28:57.064Z,1006.05
2022-12-25T08:29:56.964Z,1006.07
2022-12-25T08:30:57.581Z,1006.02
2022-12-25T08:31:57.510Z,1006.04
2022-12-25T08:32:57.544Z,1006.06
2022-12-25T08:33:57.013Z,1006.07
2022-12-25T08:34:57.039Z,1006.06
2022-12-25T08:36:17.968Z,1006.06
2022-12-25T08:36:57.001Z,1006.03
2022-12-25T08:37:56.542Z,1005.99
2022-12-25T08:39:02.756Z,1005.95
2022-12-25T08:39:56.941Z,1005.84
2022-12-25T08:40:56.929Z,1005.73
2022-12-25T08:41:57.440Z,1005.67
2022-12-25T08:42:56.904Z,1005.59
2022-12-25T08:43:56.887Z,1005.54
2022-12-25T08:44:56.914Z,1005.51
2022-12-25T08:45:56.960Z,1005.47
2022-12-25T08:46:56.845Z,1005.51
2022-12-25T08:47:56.953Z,1005.55
2022-12-25T08:48:56.919Z,1005.60
2022-12-25T08:49:56.881Z,1005.69
2022-12-25T08:50:56.844Z,1005.65
2022-12-25T08:51:56.804Z,1005.69
2022-12-25T08:52:56.773Z,1005.65
2022-12-25T08:53:56.756Z,1005.71
2022-12-25T08:54:56.802Z,1005.73
2022-12-25T08:55:56.723Z,1005.72
2022-12-25T08:57:02.425Z,1005.75
2022-12-25T08:57:56.367Z,1005.77
2022-12-25T08:58:56.363Z,1005.78
2022-12-25T08:59:56.354Z,1005.80
2022-12-25T09:00:56.426Z,1005.80
2022-12-25T09:01:56.507Z,1005.75
2022-12-25T09:02:56.464Z,1005.77
2022-12-25T09:03:56.332Z,1005.80
2022-12-25T09:04:56.332Z,1005.78
2022-12-25T09:05:56.326Z,1005.75
2022-12-25T09:06:56.309Z,1005.76
2022-12-25T09:07:56.300Z,1005.70
2022-12-25T09:08:56.313Z,1005.64
2022-12-25T09:09:56.279Z,1005.63
2022-12-25T09:10:56.291Z,1005.58
2022-12-25T09:11:56.275Z,1005.59
2022-12-25T09:12:56.301Z,1005.52
2022-12-25T09:13:56.278Z,1005.54
2022-12-25T09:14:56.255Z,1005.52
2022-12-25T09:15:56.345Z,1005.53
2022-12-25T09:16:56.240Z,1005.46
2022-12-25T09:17:56.229Z,1005.43
2022-12-25T09:18:56.223Z,1005.43
2022-12-25T09:19:56.217Z,1005.36
2022-12-25T09:20:56.211Z,1005.36
2022-12-25T09:21:56.199Z,1005.28
2022-12-25T09:22:56.191Z,1005.30
2022-12-25T09:23:56.192Z,1005.30
2022-12-25T09:24:56.190Z,1005.30
2022-12-25T09:25:56.175Z,1005.33
2022-12-25T09:26:56.182Z,1005.35
2022-12-25T09:27:56.162Z,1005.37
2022-12-25T09:28:56.149Z,1005.46
2022-12-25T09:29:56.142Z,1005.43
2022-12-25T09:30:56.172Z,1005.38
2022-12-25T09:31:56.128Z,1005.36
2022-12-25T09:32:56.117Z,1005.30
2022-12-25T09:33:56.145Z,1005.29
2022-12-25T09:34:56.109Z,1005.24
2022-12-25T09:35:56.099Z,1005.27
2022-12-25T09:36:56.094Z,1005.37
2022-12-25T09:37:56.082Z,1005.32
2022-12-25T09:38:56.082Z,1005.38
2022-12-25T09:39:56.069Z,1005.43
2022-12-25T09:40:56.077Z,1005.42
2022-12-25T09:41:56.061Z,1005.45
2022-12-25T09:42:56.067Z,1005.42
2022-12-25T09:43:56.046Z,1005.31
2022-12-25T09:44:56.035Z,1005.28
2022-12-25T09:45:56.076Z,1005.35
2022-12-25T09:46:56.077Z,1005.35
2022-12-25T09:47:56.023Z,1005.40
2022-12-25T09:48:56.008Z,1005.37
2022-12-25T09:49:56.004Z,1005.32
2022-12-25T09:50:55.995Z,1005.33
2022-12-25T09:51:55.990Z,1005.34
2022-12-25T09:52:55.981Z,1005.31
2022-12-25T09:53:56.009Z,1005.36
2022-12-25T09:54:55.973Z,1005.34
2022-12-25T09:55:55.962Z,1005.30
2022-12-25T09:56:55.949Z,1005.31
2022-12-25T09:57:55.950Z,1005.41
2022-12-25T09:58:55.968Z,1005.39
2022-12-25T09:59:55.932Z,1005.35
2022-12-25T10:00:55.923Z,1005.37
2022-12-25T10:01:55.981Z,1005.42
2022-12-25T10:02:56.104Z,1005.45
2022-12-25T10:03:55.956Z,1005.51
2022-12-25T10:04:55.947Z,1005.49
2022-12-25T10:05:55.891Z,1005.57
2022-12-25T10:06:55.893Z,1005.58
2022-12-25T10:07:55.881Z,1005.65
2022-12-25T10:08:55.867Z,1005.67
2022-12-25T10:09:55.863Z,1005.70
2022-12-25T10:10:55.856Z,1005.72
2022-12-25T10:11:55.847Z,1005.68
2022-12-25T10:12:55.851Z,1005.73
2022-12-25T10:13:55.830Z,1005.75
2022-12-25T10:14:55.827Z,1005.79
2022-12-25T10:15:55.859Z,1005.78
2022-12-25T10:16:55.810Z,1005.84
2022-12-25T10:17:55.806Z,1005.83
2022-12-25T10:18:55.797Z,1005.90
2022-12-25T10:19:55.802Z,1005.80
2022-12-25T10:20:55.784Z,1005.79
2022-12-25T10:21:55.777Z,1005.76
2022-12-25T10:22:55.778Z,1005.68
2022-12-25T10:23:55.769Z,1005.66
2022-12-25T10:24:55.773Z,1005.60
2022-12-25T10:25:55.747Z,1005.62
2022-12-25T10:26:55.769Z,1005.63
2022-12-25T10:27:55.743Z,1005.63
2022-12-25T10:28:55.748Z,1005.73
2022-12-25T10:29:55.733Z,1005.69
2022-12-25T10:30:55.790Z,1005.64
2022-12-25T10:31:55.716Z,1005.61
2022-12-25T10:32:55.744Z,1005.62
2022-12-25T10:33:55.703Z,1005.60
2022-12-25T10:34:55.692Z,1005.61
2022-12-25T10:35:55.686Z,1005.66
2022-12-25T10:36:55.676Z,1005.60
2022-12-25T10:37:55.675Z,1005.58
2022-12-25T10:38:55.678Z,1005.58
2022-12-25T10:39:55.660Z,1005.52
2022-12-25T10:40:55.661Z,1005.48
2022-12-25T10:41:55.651Z,1005.43
2022-12-25T10:42:55.672Z,1005.42
2022-12-25T10:43:55.633Z,1005.38
2022-12-25T10:44:55.618Z,1005.30
2022-12-25T10:45:55.668Z,1005.23
2022-12-25T10:46:55.708Z,1005.24
2022-12-25T10:48:03.412Z,1005.16
2022-12-25T10:48:55.602Z,1005.20
2022-12-25T10:49:55.594Z,1005.24
2022-12-25T10:50:55.585Z,1005.18
2022-12-25T10:51:55.601Z,1005.19
2022-12-25T10:52:55.620Z,1005.18
2022-12-25T10:53:55.581Z,1005.13
2022-12-25T10:54:55.564Z,1005.11
2022-12-25T10:55:55.572Z,1005.07
2022-12-25T10:56:55.541Z,1005.08
2022-12-25T10:57:55.542Z,1005.09
2022-12-25T10:58:55.527Z,1005.15
2022-12-25T10:59:55.519Z,1005.15
2022-12-25T11:00:55.550Z,1005.16
2022-12-25T11:01:55.880Z,1005.20
2022-12-25T11:02:55.807Z,1005.19
2022-12-25T11:03:55.538Z,1005.26
2022-12-25T11:04:55.492Z,1005.09
2022-12-25T11:05:55.491Z,1005.07
2022-12-25T11:06:55.472Z,1005.03
2022-12-25T11:07:55.498Z,1004.93
2022-12-25T11:08:55.475Z,1004.89
2022-12-25T11:09:59.279Z,1004.88
2022-12-25T11:10:55.459Z,1004.85
2022-12-25T11:11:55.445Z,1004.79
2022-12-25T11:12:55.564Z,1004.74
2022-12-25T11:13:55.469Z,1004.62
2022-12-25T11:14:57.347Z,1004.51
2022-12-25T11:15:55.451Z,1004.44
2022-12-25T11:16:55.417Z,1004.41
2022-12-25T11:17:55.411Z,1004.42
2022-12-25T11:18:55.420Z,1004.29
2022-12-25T11:19:55.391Z,1004.27
2022-12-25T11:20:55.399Z,1004.27
2022-12-25T11:21:55.520Z,1004.28
2022-12-25T11:22:55.441Z,1004.38
2022-12-25T11:23:55.408Z,1004.35
2022-12-25T11:24:55.382Z,1004.30
2022-12-25T11:25:55.384Z,1004.26
2022-12-25T11:26:55.337Z,1004.25
2022-12-25T11:27:55.343Z,1004.17
2022-12-25T11:28:55.340Z,1004.20
2022-12-25T11:29:55.326Z,1004.17
2022-12-25T11:30:55.372Z,1004.10
2022-12-25T11:31:55.395Z,1004.14
2022-12-25T11:32:55.314Z,1004.20
2022-12-25T11:33:55.300Z,1004.24
2022-12-25T11:34:55.302Z,1004.15
2022-12-25T11:35:55.292Z,1004.17
2022-12-25T11:36:55.277Z,1004.13
2022-12-25T11:37:55.272Z,1004.05
2022-12-25T11:38:55.262Z,1004.03
2022-12-25T11:39:55.265Z,1003.95
2022-12-25T11:40:55.274Z,1003.85
2022-12-25T11:41:55.245Z,1003.78
2022-12-25T11:42:55.238Z,1003.74
2022-12-25T11:43:55.229Z,1003.74
2022-12-25T11:44:55.230Z,1003.79
2022-12-25T11:45:55.215Z,1003.76
2022-12-25T11:46:55.289Z,1003.74
2022-12-25T11:47:55.204Z,1003.74
2022-12-25T11:48:55.199Z,1003.71
2022-12-25T11:50:00.174Z,1003.71
2022-12-25T11:50:55.188Z,1003.65
2022-12-25T11:51:55.189Z,1003.67
2022-12-25T11:52:55.175Z,1003.64
2022-12-25T11:53:55.167Z,1003.67
2022-12-25T11:54:55.159Z,1003.69
2022-12-25T11:55:55.156Z,1003.78
2022-12-25T11:56:55.143Z,1003.77
2022-12-25T11:57:55.159Z,1003.69
2022-12-25T11:58:55.141Z,1003.60
2022-12-25T11:59:55.157Z,1003.62
2022-12-25T12:00:55.128Z,1003.53
2022-12-25T12:01:55.223Z,1003.50
2022-12-25T12:02:55.214Z,1003.37
2022-12-25T12:03:55.257Z,1003.44
2022-12-25T12:04:55.108Z,1003.40
2022-12-25T12:05:55.129Z,1003.44
2022-12-25T12:06:55.089Z,1003.43
2022-12-25T12:07:55.088Z,1003.40
2022-12-25T12:08:55.081Z,1003.49
2022-12-25T12:09:55.081Z,1003.53
2022-12-25T12:10:55.073Z,1003.46
2022-12-25T12:11:55.063Z,1003.51
2022-12-25T12:12:55.074Z,1003.49
2022-12-25T12:13:55.045Z,1003.53
2022-12-25T12:14:55.049Z,1003.55
2022-12-25T12:15:55.029Z,1003.49
2022-12-25T12:16:55.075Z,1003.49
2022-12-25T12:17:55.021Z,1003.49
2022-12-25T12:18:55.020Z,1003.46
2022-12-25T12:19:55.009Z,1003.54
2022-12-25T12:20:55.008Z,1003.48
2022-12-25T12:21:55.006Z,1003.50
2022-12-25T12:22:54.999Z,1003.40
2022-12-25T12:23:54.990Z,1003.46
2022-12-25T12:24:54.981Z,1003.41
2022-12-25T12:25:54.974Z,1003.40
2022-12-25T12:26:54.962Z,1003.43
2022-12-25T12:27:59.804Z,1003.35
2022-12-25T12:28:54.952Z,1003.36
2022-12-25T12:29:54.946Z,1003.41
2022-12-25T12:30:54.946Z,1003.39
2022-12-25T12:31:55.099Z,1003.36
2022-12-25T12:32:54.954Z,1003.34
2022-12-25T12:33:55.056Z,1003.39
2022-12-25T12:34:54.928Z,1003.38
2022-12-25T12:35:54.917Z,1003.38
2022-12-25T12:36:54.909Z,1003.40
2022-12-25T12:37:54.898Z,1003.37
2022-12-25T12:38:54.896Z,1003.36
2022-12-25T12:39:54.894Z,1003.33
2022-12-25T12:40:54.893Z,1003.35
2022-12-25T12:41:56.404Z,1003.34
2022-12-25T12:42:54.886Z,1003.34
2022-12-25T12:43:54.861Z,1003.33
2022-12-25T12:44:54.870Z,1003.34
2022-12-25T12:45:54.883Z,1003.37
2022-12-25T12:46:54.867Z,1003.38
2022-12-25T12:47:54.860Z,1003.40
2022-12-25T12:48:54.843Z,1003.32
2022-12-25T12:49:54.829Z,1003.31
2022-12-25T12:50:54.831Z,1003.27
2022-12-25T12:51:54.816Z,1003.31
2022-12-25T12:52:54.805Z,1003.32
2022-12-25T12:53:54.809Z,1003.36
2022-12-25T12:54:54.811Z,1003.36
2022-12-25T12:55:54.793Z,1003.29
2022-12-25T12:56:54.787Z,1003.23
2022-12-25T12:57:54.785Z,1003.28
2022-12-25T12:58:54.779Z,1003.30
2022-12-25T12:59:54.780Z,1003.30
2022-12-25T13:00:54.814Z,1003.31
2022-12-25T13:01:54.902Z,1003.32
2022-12-25T13:02:54.938Z,1003.30
2022-12-25T13:03:54.759Z,1003.23
2022-12-25T13:04:54.744Z,1003.22
2022-12-25T13:05:54.741Z,1003.22
2022-12-25T13:06:54.728Z,1003.32
2022-12-25T13:07:54.722Z,1003.21
2022-12-25T13:08:54.716Z,1003.21
2022-12-25T13:09:54.714Z,1003.16
2022-12-25T13:10:54.706Z,1003.11
2022-12-25T13:11:54.696Z,1003.13
2022-12-25T13:12:54.686Z,1003.22
2022-12-25T13:13:54.694Z,1003.17
2022-12-25T13:14:54.688Z,1003.10
2022-12-25T13:15:54.687Z,1003.10
2022-12-25T13:16:54.827Z,1003.15
2022-12-25T13:17:54.676Z,1003.18
2022-12-25T13:18:54.650Z,1003.25
2022-12-25T13:19:54.666Z,1003.09
2022-12-25T13:20:54.648Z,1003.13
2022-12-25T13:21:54.647Z,1003.18
2022-12-25T13:22:54.699Z,1003.20
2022-12-25T13:23:54.623Z,1003.11
2022-12-25T13:24:54.654Z,1002.90
2022-12-25T13:25:54.633Z,1003.05
2022-12-25T13:26:54.681Z,1003.09
2022-12-25T13:27:54.606Z,1002.98
2022-12-25T13:28:54.603Z,1002.88
2022-12-25T13:29:54.601Z,1002.92
2022-12-25T13:30:54.592Z,1003.00
2022-12-25T13:31:54.621Z,1002.95
2022-12-25T13:32:54.636Z,1003.00
2022-12-25T13:33:54.563Z,1003.05
2022-12-25T13:34:54.559Z,1003.00
2022-12-25T13:35:54.555Z,1002.99
2022-12-25T13:36:54.553Z,1003.02
2022-12-25T13:37:54.543Z,1003.09
2022-12-25T13:38:54.557Z,1003.01
2022-12-25T13:39:54.533Z,1003.00
2022-12-25T13:40:54.527Z,1003.03
2022-12-25T13:41:54.524Z,1002.97
2022-12-25T13:42:54.526Z,1002.90
2022-12-25T13:43:54.523Z,1002.90
2022-12-25T13:44:54.508Z,1002.93
2022-12-25T13:45:54.594Z,1003.01
2022-12-25T13:46:54.491Z,1002.94
2022-12-25T13:47:55.825Z,1003.06
2022-12-25T13:48:54.478Z,1003.16
2022-12-25T13:49:54.487Z,1003.13
2022-12-25T13:50:54.470Z,1003.16
2022-12-25T13:51:54.467Z,1003.07
2022-12-25T13:52:54.454Z,1003.12
2022-12-25T13:53:54.447Z,1003.11
2022-12-25T13:54:54.451Z,1003.08
2022-12-25T13:55:54.490Z,1003.06
2022-12-25T13:56:54.446Z,1003.17
2022-12-25T13:57:54.436Z,1003.16
2022-12-25T13:58:54.420Z,1003.17
2022-12-25T13:59:54.417Z,1003.17
2022-12-25T14:00:54.442Z,1003.17
2022-12-25T14:01:54.526Z,1003.14
2022-12-25T14:02:54.483Z,1003.05
2022-12-25T14:03:54.397Z,1003.06
2022-12-25T14:04:54.386Z,1002.99
2022-12-25T14:05:54.380Z,1003.02
2022-12-25T14:06:54.385Z,1003.06
2022-12-25T14:07:54.372Z,1003.11
2022-12-25T14:08:54.362Z,1003.13
2022-12-25T14:09:54.361Z,1003.19
2022-12-25T14:10:54.360Z,1003.22
2022-12-25T14:11:54.359Z,1003.15
2022-12-25T14:12:54.353Z,1003.06
2022-12-25T14:13:54.335Z,1003.02
2022-12-25T14:14:54.326Z,1003.04
2022-12-25T14:15:54.330Z,1003.06
2022-12-25T14:16:54.390Z,1003.16
2022-12-25T14:17:54.309Z,1003.19
2022-12-25T14:18:54.306Z,1003.14
2022-12-25T14:19:54.297Z,1003.14
2022-12-25T14:20:54.286Z,1003.13
2022-12-25T14:21:54.294Z,1003.19
2022-12-25T14:22:54.284Z,1003.13
2022-12-25T14:23:54.295Z,1003.06
2022-12-25T14:24:54.267Z,1003.09
2022-12-25T14:25:54.294Z,1003.09
2022-12-25T14:26:54.258Z,1003.12
2022-12-25T14:27:54.249Z,1003.28